sensor_id;sensor_type;location;lat;lon;timestamp;pressure;altitude;pressure_sealevel;temperature;humidity
14612;BME280;7392;52.078;11.650;2023-03-21T00:02:05;101016.44;;;7.79;98.66
14612;BME280;7392;52.078;11.650;2023-03-21T00:04:33;101008.50;;;7.77;99.09
14612;BME280;7392;52.078;11.650;2023-03-21T00:07:22;101001.44;;;7.76;98.94
14612;BME280;7392;52.078;11.650;2023-03-21T00:09:49;101009.38;;;7.76;99.29
14612;BME280;7392;52.078;11.650;2023-03-21T00:12:20;101005.84;;;7.76;99.63
14612;BME280;7392;52.078;11.650;2023-03-21T00:14:48;101004.06;;;7.75;99.75
14612;BME280;7392;52.078;11.650;2023-03-21T00:17:16;101004.06;;;7.75;99.84
14612;BME280;7392;52.078;11.650;2023-03-21T00:19:43;101005.81;;;7.74;100.00
14612;BME280;7392;52.078;11.650;2023-03-21T00:22:11;100998.75;;;7.73;99.96
14612;BME280;7392;52.078;11.650;2023-03-21T00:24:40;100997.00;;;7.72;100.00
14612;BME280;7392;52.078;11.650;2023-03-21T00:27:08;100995.19;;;7.71;100.00
14612;BME280;7392;52.078;11.650;2023-03-21T00:29:55;100992.53;;;7.70;100.00
14612;BME280;7392;52.078;11.650;2023-03-21T00:32:23;100989.00;;;7.69;100.00
14612;BME280;7392;52.078;11.650;2023-03-21T00:34:51;100989.88;;;7.70;100.00
14612;BME280;7392;52.078;11.650;2023-03-21T00:37:39;100987.25;;;7.70;100.00
14612;BME280;7392;52.078;11.650;2023-03-21T00:40:11;100983.72;;;7.69;100.00
14612;BME280;7392;52.078;11.650;2023-03-21T00:42:51;100980.16;;;7.67;100.00
14612;BME280;7392;52.078;11.650;2023-03-21T00:45:19;100980.16;;;7.67;100.00
14612;BME280;7392;52.078;11.650;2023-03-21T00:47:47;100978.38;;;7.66;100.00
14612;BME280;7392;52.078;11.650;2023-03-21T00:50:15;100976.63;;;7.66;100.00
14612;BME280;7392;52.078;11.650;2023-03-21T00:52:43;100975.75;;;7.67;100.00
14612;BME280;7392;52.078;11.650;2023-03-21T00:55:13;100969.59;;;7.68;100.00
14612;BME280;7392;52.078;11.650;2023-03-21T00:57:41;100970.47;;;7.67;100.00
14612;BME280;7392;52.078;11.650;2023-03-21T01:00:17;100974.88;;;7.68;100.00
14612;BME280;7392;52.078;11.650;2023-03-21T01:02:46;100977.53;;;7.68;100.00
14612;BME280;7392;52.078;11.650;2023-03-21T01:05:45;100966.94;;;7.67;100.00
14612;BME280;7392;52.078;11.650;2023-03-21T01:08:32;100969.59;;;7.68;100.00
14612;BME280;7392;52.078;11.650;2023-03-21T01:11:19;100977.53;;;7.68;100.00
14612;BME280;7392;52.078;11.650;2023-03-21T01:13:48;100974.00;;;7.68;100.00
14612;BME280;7392;52.078;11.650;2023-03-21T01:16:27;100971.34;;;7.66;100.00
14612;BME280;7392;52.078;11.650;2023-03-21T01:18:55;100977.50;;;7.65;100.00
14612;BME280;7392;52.078;11.650;2023-03-21T01:21:23;100967.75;;;7.63;100.00
14612;BME280;7392;52.078;11.650;2023-03-21T01:23:50;100973.03;;;7.61;100.00
14612;BME280;7392;52.078;11.650;2023-03-21T01:26:19;100973.00;;;7.60;100.00
14612;BME280;7392;52.078;11.650;2023-03-21T01:28:47;100961.53;;;7.59;100.00
14612;BME280;7392;52.078;11.650;2023-03-21T01:31:16;100974.75;;;7.59;100.00
14612;BME280;7392;52.078;11.650;2023-03-21T01:33:44;100964.19;;;7.59;100.00
14612;BME280;7392;52.078;11.650;2023-03-21T01:36:16;100960.69;;;7.60;100.00
14612;BME280;7392;52.078;11.650;2023-03-21T01:38:49;100964.22;;;7.61;100.00
14612;BME280;7392;52.078;11.650;2023-03-21T01:41:23;100961.56;;;7.61;100.00
14612;BME280;7392;52.078;11.650;2023-03-21T01:44:11;100959.78;;;7.60;100.00
14612;BME280;7392;52.078;11.650;2023-03-21T01:46:42;100962.44;;;7.61;100.00
14612;BME280;7392;52.078;11.650;2023-03-21T01:49:46;100960.72;;;7.62;100.00
14612;BME280;7392;52.078;11.650;2023-03-21T01:52:20;100957.16;;;7.61;100.00
14612;BME280;7392;52.078;11.650;2023-03-21T01:55:07;100947.47;;;7.60;100.00
14612;BME280;7392;52.078;11.650;2023-03-21T01:57:45;100958.91;;;7.59;100.00
14612;BME280;7392;52.078;11.650;2023-03-21T02:00:31;100954.50;;;7.60;100.00
14612;BME280;7392;52.078;11.650;2023-03-21T02:03:14;100950.97;;;7.59;100.00
14612;BME280;7392;52.078;11.650;2023-03-21T02:06:12;100952.75;;;7.59;100.00
14612;BME280;7392;52.078;11.650;2023-03-21T02:08:46;100946.56;;;7.57;100.00
14612;BME280;7392;52.078;11.650;2023-03-21T02:11:15;100943.84;;;7.52;100.00
14612;BME280;7392;52.078;11.650;2023-03-21T02:13:44;100940.28;;;7.48;100.00
14612;BME280;7392;52.078;11.650;2023-03-21T02:16:20;100937.56;;;7.45;100.00
14612;BME280;7392;52.078;11.650;2023-03-21T02:18:56;100936.66;;;7.42;100.00
14612;BME280;7392;52.078;11.650;2023-03-21T02:21:43;100932.19;;;7.39;100.00
14612;BME280;7392;52.078;11.650;2023-03-21T02:24:48;100933.94;;;7.37;100.00
14612;BME280;7392;52.078;11.650;2023-03-21T02:27:31;100930.38;;;7.34;100.00
14612;BME280;7392;52.078;11.650;2023-03-21T02:30:33;100925.06;;;7.34;100.00
14612;BME280;7392;52.078;11.650;2023-03-21T02:36:21;100917.09;;;7.29;100.00
14612;BME280;7392;52.078;11.650;2023-03-21T02:38:59;100917.06;;;7.26;100.00
14612;BME280;7392;52.078;11.650;2023-03-21T02:41:34;100920.56;;;7.25;100.00
14612;BME280;7392;52.078;11.650;2023-03-21T02:44:10;100919.63;;;7.21;100.00
14612;BME280;7392;52.078;11.650;2023-03-21T02:46:45;100924.84;;;7.17;100.00
14612;BME280;7392;52.078;11.650;2023-03-21T02:49:34;100923.06;;;7.14;100.00
14612;BME280;7392;52.078;11.650;2023-03-21T02:52:06;100923.88;;;7.11;100.00
14612;BME280;7392;52.078;11.650;2023-03-21T02:54:50;100919.44;;;7.10;100.00
14612;BME280;7392;52.078;11.650;2023-03-21T02:57:23;100925.63;;;7.09;100.00
14612;BME280;7392;52.078;11.650;2023-03-21T03:00:07;100931.72;;;7.07;100.00
14612;BME280;7392;52.078;11.650;2023-03-21T03:02:44;100925.53;;;7.05;100.00
14612;BME280;7392;52.078;11.650;2023-03-21T03:05:16;100923.78;;;7.04;100.00
14612;BME280;7392;52.078;11.650;2023-03-21T03:07:57;100916.69;;;7.01;100.00
14612;BME280;7392;52.078;11.650;2023-03-21T03:10:38;100915.81;;;7.01;100.00
14612;BME280;7392;52.078;11.650;2023-03-21T03:13:30;100914.91;;;6.99;100.00
14612;BME280;7392;52.078;11.650;2023-03-21T03:16:10;100917.53;;;6.97;100.00
14612;BME280;7392;52.078;11.650;2023-03-21T03:18:47;100921.00;;;6.96;100.00
14612;BME280;7392;52.078;11.650;2023-03-21T03:21:21;100925.38;;;6.94;100.00
14612;BME280;7392;52.078;11.650;2023-03-21T03:23:58;100921.81;;;6.90;100.00
14612;BME280;7392;52.078;11.650;2023-03-21T03:26:33;100920.06;;;6.91;100.00
14612;BME280;7392;52.078;11.650;2023-03-21T03:29:05;100916.56;;;6.92;100.00
14612;BME280;7392;52.078;11.650;2023-03-21T03:31:36;100913.88;;;6.89;100.00
14612;BME280;7392;52.078;11.650;2023-03-21T03:34:08;100913.00;;;6.88;100.00
14612;BME280;7392;52.078;11.650;2023-03-21T03:36:42;100910.34;;;6.88;100.00
14612;BME280;7392;52.078;11.650;2023-03-21T03:39:15;100913.84;;;6.87;100.00
14612;BME280;7392;52.078;11.650;2023-03-21T03:41:55;100913.88;;;6.89;100.00
14612;BME280;7392;52.078;11.650;2023-03-21T03:44:49;100910.31;;;6.87;100.00
14612;BME280;7392;52.078;11.650;2023-03-21T03:47:21;100912.06;;;6.86;100.00
14612;BME280;7392;52.078;11.650;2023-03-21T03:50:03;100916.47;;;6.87;100.00
14612;BME280;7392;52.078;11.650;2023-03-21T03:52:36;100911.16;;;6.86;100.00
14612;BME280;7392;52.078;11.650;2023-03-21T03:55:22;100905.84;;;6.84;100.00
14612;BME280;7392;52.078;11.650;2023-03-21T03:57:55;100904.09;;;6.83;100.00
14612;BME280;7392;52.078;11.650;2023-03-21T04:00:23;100904.06;;;6.82;100.00
14612;BME280;7392;52.078;11.650;2023-03-21T04:02:53;100906.69;;;6.80;100.00
14612;BME280;7392;52.078;11.650;2023-03-21T04:05:22;100903.13;;;6.80;100.00
14612;BME280;7392;52.078;11.650;2023-03-21T04:07:51;100896.09;;;6.79;100.00
14612;BME280;7392;52.078;11.650;2023-03-21T04:10:28;100893.50;;;6.80;100.00
14612;BME280;7392;52.078;11.650;2023-03-21T04:12:57;100898.75;;;6.79;100.00
14612;BME280;7392;52.078;11.650;2023-03-21T04:15:48;100885.53;;;6.79;100.00
14612;BME280;7392;52.078;11.650;2023-03-21T04:18:16;100887.31;;;6.80;100.00
14612;BME280;7392;52.078;11.650;2023-03-21T04:20:44;100879.38;;;6.80;100.00
14612;BME280;7392;52.078;11.650;2023-03-21T04:23:14;100885.56;;;6.80;100.00
14612;BME280;7392;52.078;11.650;2023-03-21T04:25:44;100881.16;;;6.81;100.00
14612;BME280;7392;52.078;11.650;2023-03-21T04:28:27;100878.53;;;6.81;100.00
14612;BME280;7392;52.078;11.650;2023-03-21T04:31:21;100883.81;;;6.81;100.00
14612;BME280;7392;52.078;11.650;2023-03-21T04:34:12;100890.84;;;6.80;100.00
14612;BME280;7392;52.078;11.650;2023-03-21T04:36:47;100880.28;;;6.80;100.00
14612;BME280;7392;52.078;11.650;2023-03-21T04:39:15;100882.03;;;6.80;100.00
14612;BME280;7392;52.078;11.650;2023-03-21T04:41:47;100883.81;;;6.81;100.00
14612;BME280;7392;52.078;11.650;2023-03-21T04:44:17;100880.34;;;6.83;100.00
14612;BME280;7392;52.078;11.650;2023-03-21T04:47:59;100874.13;;;6.81;100.00
14612;BME280;7392;52.078;11.650;2023-03-21T04:50:28;100867.97;;;6.81;100.00
14612;BME280;7392;52.078;11.650;2023-03-21T04:52:58;100878.59;;;6.84;100.00
14612;BME280;7392;52.078;11.650;2023-03-21T04:55:26;100873.31;;;6.84;100.00
14612;BME280;7392;52.078;11.650;2023-03-21T04:57:54;100875.06;;;6.85;100.00
14612;BME280;7392;52.078;11.650;2023-03-21T05:00:22;100881.25;;;6.85;100.00
14612;BME280;7392;52.078;11.650;2023-03-21T05:02:51;100872.44;;;6.86;100.00
14612;BME280;7392;52.078;11.650;2023-03-21T05:05:21;100871.59;;;6.87;100.00
14612;BME280;7392;52.078;11.650;2023-03-21T05:07:50;100866.31;;;6.87;100.00
14612;BME280;7392;52.078;11.650;2023-03-21T05:10:18;100866.31;;;6.87;100.00
14612;BME280;7392;52.078;11.650;2023-03-21T05:12:45;100865.47;;;6.88;100.00
14612;BME280;7392;52.078;11.650;2023-03-21T05:15:13;100873.34;;;6.87;100.00
14612;BME280;7392;52.078;11.650;2023-03-21T05:17:41;100874.22;;;6.87;100.00
14612;BME280;7392;52.078;11.650;2023-03-21T05:20:09;100867.16;;;6.86;100.00
14612;BME280;7392;52.078;11.650;2023-03-21T05:22:38;100863.66;;;6.87;100.00
14612;BME280;7392;52.078;11.650;2023-03-21T05:25:11;100863.66;;;6.87;100.00
14612;BME280;7392;52.078;11.650;2023-03-21T05:28:06;100872.50;;;6.89;100.00
14612;BME280;7392;52.078;11.650;2023-03-21T05:30:34;100875.13;;;6.89;100.00
14612;BME280;7392;52.078;11.650;2023-03-21T05:33:02;100878.66;;;6.90;100.00
14612;BME280;7392;52.078;11.650;2023-03-21T05:35:30;100880.41;;;6.89;100.00
14612;BME280;7392;52.078;11.650;2023-03-21T05:38:02;100886.59;;;6.91;100.00
14612;BME280;7392;52.078;11.650;2023-03-21T05:40:37;100875.16;;;6.91;100.00
14612;BME280;7392;52.078;11.650;2023-03-21T05:43:05;100875.19;;;6.92;100.00
14612;BME280;7392;52.078;11.650;2023-03-21T05:45:34;100874.34;;;6.93;100.00
14612;BME280;7392;52.078;11.650;2023-03-21T05:48:02;100885.81;;;6.96;100.00
14612;BME280;7392;52.078;11.650;2023-03-21T05:50:37;100881.41;;;6.98;100.00
14612;BME280;7392;52.078;11.650;2023-03-21T05:53:12;100874.38;;;6.98;100.00
14612;BME280;7392;52.078;11.650;2023-03-21T05:55:40;100888.47;;;7.00;100.00
14612;BME280;7392;52.078;11.650;2023-03-21T05:58:13;100877.94;;;7.02;100.00
14612;BME280;7392;52.078;11.650;2023-03-21T06:00:46;100880.63;;;7.03;100.00
14612;BME280;7392;52.078;11.650;2023-03-21T06:03:24;100878.88;;;7.04;100.00
14612;BME280;7392;52.078;11.650;2023-03-21T06:07:06;100877.16;;;7.06;100.00
14612;BME280;7392;52.078;11.650;2023-03-21T06:09:38;100878.03;;;7.08;100.00
14612;BME280;7392;52.078;11.650;2023-03-21T06:12:06;100886.88;;;7.10;100.00
14612;BME280;7392;52.078;11.650;2023-03-21T06:14:53;100880.75;;;7.13;100.00
14612;BME280;7392;52.078;11.650;2023-03-21T06:17:30;100883.44;;;7.14;100.00
14612;BME280;7392;52.078;11.650;2023-03-21T06:20:04;100882.56;;;7.17;100.00
14612;BME280;7392;52.078;11.650;2023-03-21T06:22:41;100885.25;;;7.20;100.00
14612;BME280;7392;52.078;11.650;2023-03-21T06:25:09;100881.72;;;7.21;100.00
14612;BME280;7392;52.078;11.650;2023-03-21T06:27:37;100880.94;;;7.25;100.00
14612;BME280;7392;52.078;11.650;2023-03-21T06:30:07;100878.31;;;7.26;100.00
14612;BME280;7392;52.078;11.650;2023-03-21T06:32:53;100891.56;;;7.29;100.00
14612;BME280;7392;52.078;11.650;2023-03-21T06:35:21;100892.47;;;7.32;100.00
14612;BME280;7392;52.078;11.650;2023-03-21T06:37:50;100882.81;;;7.35;100.00
14612;BME280;7392;52.078;11.650;2023-03-21T06:40:20;100887.28;;;7.39;100.00
14612;BME280;7392;52.078;11.650;2023-03-21T06:42:49;100878.50;;;7.42;100.00
14612;BME280;7392;52.078;11.650;2023-03-21T06:45:17;100889.13;;;7.45;100.00
14612;BME280;7392;52.078;11.650;2023-03-21T06:47:46;100884.78;;;7.50;100.00
14612;BME280;7392;52.078;11.650;2023-03-21T06:50:25;100888.34;;;7.52;100.00
14612;BME280;7392;52.078;11.650;2023-03-21T06:52:55;100885.75;;;7.57;100.00
14612;BME280;7392;52.078;11.650;2023-03-21T06:55:27;100880.47;;;7.58;100.00
14612;BME280;7392;52.078;11.650;2023-03-21T06:57:57;100884.06;;;7.62;100.00
14612;BME280;7392;52.078;11.650;2023-03-21T07:00:26;100886.72;;;7.65;100.00
14612;BME280;7392;52.078;11.650;2023-03-21T07:02:56;100879.72;;;7.67;100.00
14612;BME280;7392;52.078;11.650;2023-03-21T07:05:25;100880.59;;;7.69;100.00
14612;BME280;7392;52.078;11.650;2023-03-21T07:07:54;100886.81;;;7.73;100.00
14612;BME280;7392;52.078;11.650;2023-03-21T07:10:26;100878.91;;;7.74;100.00
14612;BME280;7392;52.078;11.650;2023-03-21T07:13:00;100884.22;;;7.79;100.00
14612;BME280;7392;52.078;11.650;2023-03-21T07:15:39;100882.50;;;7.84;100.00
14612;BME280;7392;52.078;11.650;2023-03-21T07:18:08;100881.69;;;7.88;100.00
14612;BME280;7392;52.078;11.650;2023-03-21T07:20:37;100898.50;;;7.92;100.00
14612;BME280;7392;52.078;11.650;2023-03-21T07:23:06;100889.69;;;7.96;100.00
14612;BME280;7392;52.078;11.650;2023-03-21T07:25:35;100881.78;;;7.97;100.00
14612;BME280;7392;52.078;11.650;2023-03-21T07:28:03;100895.06;;;8.02;100.00
14612;BME280;7392;52.078;11.650;2023-03-21T07:30:34;100889.81;;;8.03;100.00
14612;BME280;7392;52.078;11.650;2023-03-21T07:33:02;100884.53;;;8.07;100.00
14612;BME280;7392;52.078;11.650;2023-03-21T07:35:30;100896.03;;;8.10;100.00
14612;BME280;7392;52.078;11.650;2023-03-21T07:37:57;100888.13;;;8.12;100.00
14612;BME280;7392;52.078;11.650;2023-03-21T07:40:27;100883.78;;;8.17;100.00
14612;BME280;7392;52.078;11.650;2023-03-21T07:42:55;100886.44;;;8.23;100.00
14612;BME280;7392;52.078;11.650;2023-03-21T07:45:32;100884.75;;;8.28;100.00
14612;BME280;7392;52.078;11.650;2023-03-21T07:48:00;100886.56;;;8.34;100.00
14612;BME280;7392;52.078;11.650;2023-03-21T07:50:32;100877.78;;;8.38;100.00
14612;BME280;7392;52.078;11.650;2023-03-21T07:53:00;100884.06;;;8.45;100.00
14612;BME280;7392;52.078;11.650;2023-03-21T07:55:29;100883.19;;;8.49;100.00
14612;BME280;7392;52.078;11.650;2023-03-21T07:58:00;100877.06;;;8.53;100.00
14612;BME280;7392;52.078;11.650;2023-03-21T08:00:27;100886.81;;;8.58;100.00
14612;BME280;7392;52.078;11.650;2023-03-21T08:02:56;100880.66;;;8.61;100.00
14612;BME280;7392;52.078;11.650;2023-03-21T08:05:26;100883.31;;;8.64;100.00
14612;BME280;7392;52.078;11.650;2023-03-21T08:07:55;100881.59;;;8.66;100.00
14612;BME280;7392;52.078;11.650;2023-03-21T08:10:23;100893.06;;;8.67;100.00
14612;BME280;7392;52.078;11.650;2023-03-21T08:12:52;100886.91;;;8.71;100.00
14612;BME280;7392;52.078;11.650;2023-03-21T08:15:20;100888.72;;;8.75;100.00
14612;BME280;7392;52.078;11.650;2023-03-21T08:17:48;100886.97;;;8.77;100.00
14612;BME280;7392;52.078;11.650;2023-03-21T08:20:18;100885.19;;;8.77;100.00
14612;BME280;7392;52.078;11.650;2023-03-21T08:22:48;100886.09;;;8.81;100.00
14612;BME280;7392;52.078;11.650;2023-03-21T08:25:17;100886.13;;;8.86;100.00
14612;BME280;7392;52.078;11.650;2023-03-21T08:27:45;100884.41;;;8.89;100.00
14612;BME280;7392;52.078;11.650;2023-03-21T08:30:16;100886.22;;;8.93;100.00
14612;BME280;7392;52.078;11.650;2023-03-21T08:32:44;100888.88;;;9.01;100.00
14612;BME280;7392;52.078;11.650;2023-03-21T08:35:14;100891.56;;;9.06;100.00
14612;BME280;7392;52.078;11.650;2023-03-21T08:37:42;100884.56;;;9.14;100.00
14612;BME280;7392;52.078;11.650;2023-03-21T08:40:13;100886.34;;;9.20;100.00
14612;BME280;7392;52.078;11.650;2023-03-21T08:42:41;100884.59;;;9.22;100.00
14612;BME280;7392;52.078;11.650;2023-03-21T08:45:10;100886.41;;;9.24;100.00
14612;BME280;7392;52.078;11.650;2023-03-21T08:47:39;100885.53;;;9.28;100.00
14612;BME280;7392;52.078;11.650;2023-03-21T08:50:10;100882.91;;;9.33;100.00
14612;BME280;7392;52.078;11.650;2023-03-21T08:52:38;100883.78;;;9.35;100.00
14612;BME280;7392;52.078;11.650;2023-03-21T08:55:07;100882.03;;;9.40;100.00
14612;BME280;7392;52.078;11.650;2023-03-21T08:57:35;100882.94;;;9.42;100.00
14612;BME280;7392;52.078;11.650;2023-03-21T09:00:04;100881.19;;;9.47;100.00
14612;BME280;7392;52.078;11.650;2023-03-21T09:02:36;100875.91;;;9.50;100.00
14612;BME280;7392;52.078;11.650;2023-03-21T09:05:06;100882.13;;;9.55;100.00
14612;BME280;7392;52.078;11.650;2023-03-21T09:07:34;100876.84;;;9.62;100.00
14612;BME280;7392;52.078;11.650;2023-03-21T09:10:04;100875.97;;;9.67;100.00
14612;BME280;7392;52.078;11.650;2023-03-21T09:12:46;100878.66;;;9.70;100.00
14612;BME280;7392;52.078;11.650;2023-03-21T09:15:14;100873.34;;;9.72;100.00
14612;BME280;7392;52.078;11.650;2023-03-21T09:17:43;100882.19;;;9.76;100.00
14612;BME280;7392;52.078;11.650;2023-03-21T09:20:22;100874.25;;;9.77;100.00
14612;BME280;7392;52.078;11.650;2023-03-21T09:22:56;100883.97;;;9.80;100.00
14612;BME280;7392;52.078;11.650;2023-03-21T09:25:25;100869.84;;;9.82;100.00
14612;BME280;7392;52.078;11.650;2023-03-21T09:27:57;100868.97;;;9.89;100.00
14612;BME280;7392;52.078;11.650;2023-03-21T09:30:24;100866.34;;;9.94;100.00
14612;BME280;7392;52.078;11.650;2023-03-21T09:32:52;100867.22;;;9.99;100.00
14612;BME280;7392;52.078;11.650;2023-03-21T09:35:22;100873.41;;;10.06;100.00
14612;BME280;7392;52.078;11.650;2023-03-21T09:37:53;100866.34;;;10.14;100.00
14612;BME280;7392;52.078;11.650;2023-03-21T09:40:38;100860.16;;;10.21;100.00
14612;BME280;7392;52.078;11.650;2023-03-21T09:43:17;100862.88;;;10.34;100.00
14612;BME280;7392;52.078;11.650;2023-03-21T09:45:55;100853.13;;;10.46;100.00
14612;BME280;7392;52.078;11.650;2023-03-21T09:48:32;100860.22;;;10.57;100.00
14612;BME280;7392;52.078;11.650;2023-03-21T09:51:13;100852.25;;;10.71;100.00
14612;BME280;7392;52.078;11.650;2023-03-21T09:53:45;100855.78;;;10.83;100.00
14612;BME280;7392;52.078;11.650;2023-03-21T09:56:15;100854.84;;;11.00;100.00
14612;BME280;7392;52.078;11.650;2023-03-21T09:58:47;100853.97;;;11.06;100.00
14612;BME280;7392;52.078;11.650;2023-03-21T10:01:20;100859.25;;;11.10;100.00
14612;BME280;7392;52.078;11.650;2023-03-21T10:03:53;100853.94;;;11.13;100.00
14612;BME280;7392;52.078;11.650;2023-03-21T10:06:23;100854.81;;;11.18;100.00
14612;BME280;7392;52.078;11.650;2023-03-21T10:08:56;100853.94;;;11.19;100.00
14612;BME280;7392;52.078;11.650;2023-03-21T10:13:54;100844.16;;;11.20;100.00
14612;BME280;7392;52.078;11.650;2023-03-21T10:16:26;100846.81;;;11.18;100.00
14612;BME280;7392;52.078;11.650;2023-03-21T10:18:55;100839.75;;;11.20;100.00
14612;BME280;7392;52.078;11.650;2023-03-21T10:21:26;100840.63;;;11.22;100.00
14612;BME280;7392;52.078;11.650;2023-03-21T10:24:16;100838.84;;;11.28;100.00
14612;BME280;7392;52.078;11.650;2023-03-21T10:26:46;100830.81;;;11.34;100.00
14612;BME280;7392;52.078;11.650;2023-03-21T10:29:16;100836.13;;;11.40;100.00
14612;BME280;7392;52.078;11.650;2023-03-21T10:31:48;100838.75;;;11.48;100.00
14612;BME280;7392;52.078;11.650;2023-03-21T10:34:19;100831.59;;;11.60;100.00
14612;BME280;7392;52.078;11.650;2023-03-21T10:36:52;100824.47;;;11.70;99.65
14612;BME280;7392;52.078;11.650;2023-03-21T10:39:24;100826.19;;;11.77;99.71
14612;BME280;7392;52.078;11.650;2023-03-21T10:41:53;100830.59;;;11.83;98.68
14612;BME280;7392;52.078;11.650;2023-03-21T10:44:28;100831.44;;;11.88;98.08
14612;BME280;7392;52.078;11.650;2023-03-21T10:46:57;100820.81;;;11.93;97.28
14612;BME280;7392;52.078;11.650;2023-03-21T10:49:29;100818.06;;;12.02;97.19
14612;BME280;7392;52.078;11.650;2023-03-21T10:52:08;100824.22;;;12.13;96.54
14612;BME280;7392;52.078;11.650;2023-03-21T10:54:37;100817.09;;;12.17;95.49
14612;BME280;7392;52.078;11.650;2023-03-21T10:57:08;100818.81;;;12.21;94.65
14612;BME280;7392;52.078;11.650;2023-03-21T10:59:42;100824.13;;;12.23;93.81
14612;BME280;7392;52.078;11.650;2023-03-21T11:02:16;100820.56;;;12.28;94.16
14612;BME280;7392;52.078;11.650;2023-03-21T11:04:46;100811.63;;;12.34;93.97
14612;BME280;7392;52.078;11.650;2023-03-21T11:07:14;100818.66;;;12.40;94.10
14612;BME280;7392;52.078;11.650;2023-03-21T11:09:46;100809.78;;;12.42;92.36
14612;BME280;7392;52.078;11.650;2023-03-21T11:12:17;100803.53;;;12.45;92.41
14612;BME280;7392;52.078;11.650;2023-03-21T11:14:48;100804.44;;;12.44;91.43
14612;BME280;7392;52.078;11.650;2023-03-21T11:17:21;100800.00;;;12.44;92.58
14612;BME280;7392;52.078;11.650;2023-03-21T11:19:52;100810.53;;;12.55;93.19
14612;BME280;7392;52.078;11.650;2023-03-21T11:22:21;100797.19;;;12.60;92.34
14612;BME280;7392;52.078;11.650;2023-03-21T11:24:52;100793.53;;;12.68;92.64
14612;BME280;7392;52.078;11.650;2023-03-21T11:28:08;100802.38;;;12.75;92.19
14612;BME280;7392;52.078;11.650;2023-03-21T11:30:48;100796.16;;;12.73;90.94
14612;BME280;7392;52.078;11.650;2023-03-21T11:33:18;100791.69;;;12.77;91.59
14612;BME280;7392;52.078;11.650;2023-03-21T11:35:58;100792.47;;;12.86;91.15
14612;BME280;7392;52.078;11.650;2023-03-21T11:38:29;100787.13;;;12.88;90.30
14612;BME280;7392;52.078;11.650;2023-03-21T11:41:03;100778.22;;;12.90;90.36
14612;BME280;7392;52.078;11.650;2023-03-21T11:43:35;100781.72;;;12.93;89.86
14612;BME280;7392;52.078;11.650;2023-03-21T11:46:08;100775.56;;;12.89;88.39
14612;BME280;7392;52.078;11.650;2023-03-21T11:48:39;100780.00;;;12.88;88.34
14612;BME280;7392;52.078;11.650;2023-03-21T11:51:15;100785.34;;;12.90;89.19
14612;BME280;7392;52.078;11.650;2023-03-21T11:53:48;100775.56;;;12.87;88.24
14612;BME280;7392;52.078;11.650;2023-03-21T11:56:24;100772.91;;;12.86;89.37
14612;BME280;7392;52.078;11.650;2023-03-21T11:59:31;100771.09;;;12.89;88.99
14612;BME280;7392;52.078;11.650;2023-03-21T12:02:27;100758.66;;;12.93;89.05
14612;BME280;7392;52.078;11.650;2023-03-21T12:05:04;100761.31;;;12.93;88.28
14612;BME280;7392;52.078;11.650;2023-03-21T12:07:47;100755.94;;;12.95;88.83
14612;BME280;7392;52.078;11.650;2023-03-21T12:10:32;100750.56;;;12.99;88.78
14612;BME280;7392;52.078;11.650;2023-03-21T12:13:12;100739.81;;;13.08;89.31
14612;BME280;7392;52.078;11.650;2023-03-21T12:15:53;100741.44;;;13.19;88.47
14612;BME280;7392;52.078;11.650;2023-03-21T12:18:44;100743.06;;;13.31;88.65
14612;BME280;7392;52.078;11.650;2023-03-21T12:21:18;100742.09;;;13.39;88.56
14612;BME280;7392;52.078;11.650;2023-03-21T12:23:56;100742.84;;;13.47;88.17
14612;BME280;7392;52.078;11.650;2023-03-21T12:26:30;100739.25;;;13.52;87.69
14612;BME280;7392;52.078;11.650;2023-03-21T12:29:10;100736.44;;;13.59;88.11
14612;BME280;7392;52.078;11.650;2023-03-21T12:31:56;100735.53;;;13.63;87.91
14612;BME280;7392;52.078;11.650;2023-03-21T12:34:48;100723.91;;;13.66;87.34
14612;BME280;7392;52.078;11.650;2023-03-21T12:37:25;100723.84;;;13.69;86.69
14612;BME280;7392;52.078;11.650;2023-03-21T12:40:06;100728.22;;;13.75;86.75
14612;BME280;7392;52.078;11.650;2023-03-21T12:43:03;100721.88;;;13.83;85.81
14612;BME280;7392;52.078;11.650;2023-03-21T12:45:40;100711.09;;;13.88;85.22
14612;BME280;7392;52.078;11.650;2023-03-21T12:48:18;100709.19;;;13.96;85.23
14612;BME280;7392;52.078;11.650;2023-03-21T12:50:50;100708.16;;;14.05;85.87
14612;BME280;7392;52.078;11.650;2023-03-21T12:53:31;100707.22;;;14.08;85.25
14612;BME280;7392;52.078;11.650;2023-03-21T12:56:05;100706.28;;;14.10;84.97
14612;BME280;7392;52.078;11.650;2023-03-21T12:58:43;100710.72;;;14.11;85.20
14612;BME280;7392;52.078;11.650;2023-03-21T13:01:13;100716.91;;;14.13;84.79
14612;BME280;7392;52.078;11.650;2023-03-21T13:03:45;100707.03;;;14.18;85.62
14612;BME280;7392;52.078;11.650;2023-03-21T13:06:17;100694.56;;;14.17;84.67
14612;BME280;7392;52.078;11.650;2023-03-21T13:08:51;100693.66;;;14.20;85.26
14612;BME280;7392;52.078;11.650;2023-03-21T13:11:21;100689.19;;;14.20;84.94
14612;BME280;7392;52.078;11.650;2023-03-21T13:13:56;100681.09;;;14.25;85.38
14612;BME280;7392;52.078;11.650;2023-03-21T13:16:28;100676.69;;;14.21;83.36
14612;BME280;7392;52.078;11.650;2023-03-21T13:19:04;100682.16;;;14.15;82.66
14612;BME280;7392;52.078;11.650;2023-03-21T13:23:03;100668.03;;;14.10;83.74
14612;BME280;7392;52.078;11.650;2023-03-21T13:25:32;100675.06;;;14.14;84.20
14612;BME280;7392;52.078;11.650;2023-03-21T13:28:02;100667.00;;;14.17;85.06
14612;BME280;7392;52.078;11.650;2023-03-21T13:30:31;100673.13;;;14.22;85.11
14612;BME280;7392;52.078;11.650;2023-03-21T13:33:04;100677.56;;;14.25;85.17
14612;BME280;7392;52.078;11.650;2023-03-21T13:35:35;100677.56;;;14.25;84.90